Time;durP1;ratioP1;P1;durP2;ratioP2;P2;SDS_P1;SDS_P2;PMS_P1;PMS_P2;Temp;Humidity;BMP_temperature;BMP_pressure;BME280_temperature;BME280_humidity;BME280_pressure;Samples;Min_cycle;Max_cycle;Signal;HPM_P1;HPM_P2
2024/03/14 00:00:29;;;;;;;11.30;9.87;;;;;;;10.24;100.00;153988.88;5003402;28;20437;-75
2024/03/14 00:02:57;;;;;;;11.43;9.83;;;;;;;10.21;100.00;153981.09;5008926;28;20491;-75
2024/03/14 00:05:26;;;;;;;10.97;9.20;;;;;;;10.19;100.00;153977.19;5013492;28;20484;-75
2024/03/14 00:07:57;;;;;;;8.80;7.90;;;;;;;10.21;100.00;153981.09;5004772;28;20471;-76
2024/03/14 00:10:24;;;;;;;9.47;8.40;;;;;;;10.20;100.00;153978.50;5016884;28;20868;-75
2024/03/14 00:12:52;;;;;;;9.77;8.77;;;;;;;10.19;100.00;153977.19;5004914;28;20450;-76
2024/03/14 00:15:20;;;;;;;13.83;9.37;;;;;;;10.22;100.00;153984.97;5012029;28;20455;-75
2024/03/14 00:17:46;;;;;;;9.40;8.17;;;;;;;10.24;100.00;153990.19;5025947;28;20449;-75
2024/03/14 00:20:13;;;;;;;12.93;9.57;;;;;;;10.25;100.00;153991.44;5016591;28;20442;-75
2024/03/14 00:22:40;;;;;;;12.73;9.57;;;;;;;10.21;100.00;153981.09;5018101;28;20436;-75
2024/03/14 00:25:09;;;;;;;10.33;8.70;;;;;;;10.18;100.00;153974.63;5024866;28;20451;-75
2024/03/14 00:27:38;;;;;;;11.37;9.80;;;;;;;10.16;100.00;153968.16;5017100;28;20816;-75
2024/03/14 00:30:08;;;;;;;10.53;9.53;;;;;;;10.13;100.00;153960.41;5014634;28;20439;-75
2024/03/14 00:32:35;;;;;;;10.40;9.17;;;;;;;10.11;100.00;153956.44;5012255;28;20453;-75
2024/03/14 00:35:02;;;;;;;13.03;9.70;;;;;;;10.08;100.00;153948.72;5014718;28;20466;-75
2024/03/14 00:37:29;;;;;;;11.37;10.17;;;;;;;10.08;100.00;153947.41;5037682;28;20520;-75
2024/03/14 00:39:56;;;;;;;12.53;11.07;;;;;;;10.11;100.00;153955.19;5031284;28;20945;-75
2024/03/14 00:42:24;;;;;;;11.67;10.37;;;;;;;10.07;100.00;153946.09;5030971;28;20554;-75
2024/03/14 00:44:51;;;;;;;13.43;11.00;;;;;;;10.01;100.00;153929.25;5015133;28;20542;-75
2024/03/14 00:47:18;;;;;;;13.27;11.90;;;;;;;9.96;100.00;153916.31;5013412;28;20442;-75
2024/03/14 00:49:44;;;;;;;13.47;11.57;;;;;;;9.93;100.00;153908.59;5016890;28;20458;-75
2024/03/14 00:52:11;;;;;;;14.67;12.33;;;;;;;9.92;100.00;153906.00;4994224;28;20821;-75
2024/03/14 00:54:38;;;;;;;15.07;13.37;;;;;;;9.90;100.00;153900.81;5032964;28;20477;-75
2024/03/14 00:57:06;;;;;;;17.03;13.20;;;;;;;9.89;100.00;153898.22;5037732;28;20463;-75
2024/03/14 00:59:34;;;;;;;14.80;12.47;;;;;;;9.85;100.00;153887.88;5031532;28;20470;-75
2024/03/14 01:02:00;;;;;;;14.20;12.23;;;;;;;9.86;100.00;153891.75;5025621;28;20913;-75
2024/03/14 01:04:29;;;;;;;15.67;12.80;;;;;;;9.89;100.00;153898.22;5010317;28;20451;-75
2024/03/14 01:06:55;;;;;;;16.43;13.20;;;;;;;9.87;100.00;153894.34;4999589;28;20531;-75
2024/03/14 01:09:25;;;;;;;14.13;12.60;;;;;;;9.90;100.00;153900.81;4994133;28;20495;-75
2024/03/14 01:11:53;;;;;;;15.47;13.07;;;;;;;9.89;100.00;153898.22;5022332;28;20432;-75
2024/03/14 01:14:21;;;;;;;15.33;12.67;;;;;;;9.86;100.00;153890.44;5010063;28;20431;-75
2024/03/14 01:16:49;;;;;;;12.77;11.40;;;;;;;9.83;100.00;153883.97;5010431;28;20664;-75
2024/03/14 01:19:16;;;;;;;14.90;12.27;;;;;;;9.80;100.00;153877.50;5025285;28;20451;-75
2024/03/14 01:21:43;;;;;;;14.00;12.50;;;;;;;9.82;100.00;153882.69;5026290;28;20758;-75
2024/03/14 01:24:09;;;;;;;13.90;11.43;;;;;;;9.84;100.00;153886.59;5016669;28;20452;-75
2024/03/14 01:26:36;;;;;;;13.90;11.87;;;;;;;9.82;100.00;153880.13;5024379;28;20455;-75
2024/03/14 01:29:06;;;;;;;13.13;11.53;;;;;;;9.80;100.00;153876.22;5006461;28;20459;-75
2024/03/14 01:31:34;;;;;;;14.40;12.00;;;;;;;9.78;100.00;153872.34;5013457;28;21037;-75
2024/03/14 01:34:01;;;;;;;14.83;12.60;;;;;;;9.74;100.00;153861.97;5009674;28;20443;-75
2024/03/14 01:36:28;;;;;;;13.67;12.17;;;;;;;9.73;100.00;153859.41;5024152;28;20467;-75
2024/03/14 01:38:55;;;;;;;13.20;11.87;;;;;;;9.74;100.00;153861.97;5008443;28;20852;-75
2024/03/14 01:41:22;;;;;;;12.67;10.90;;;;;;;9.72;100.00;153856.81;5011690;28;20448;-75
2024/03/14 01:43:57;;;;;;;15.83;11.60;;;;;;;9.69;100.00;153847.72;5004774;28;20449;-75
2024/03/14 01:46:25;;;;;;;15.40;12.80;;;;;;;9.64;100.00;153836.09;4990674;28;20927;-75
2024/03/14 01:48:51;;;;;;;13.10;11.60;;;;;;;9.62;100.00;153829.63;4985439;28;20444;-75
2024/03/14 01:51:18;;;;;;;15.63;12.80;;;;;;;9.60;100.00;153825.78;5025460;28;20545;-75
2024/03/14 01:53:45;;;;;;;14.27;12.77;;;;;;;9.55;100.00;153812.84;5028963;28;20828;-75
2024/03/14 01:56:12;;;;;;;14.47;12.93;;;;;;;9.54;100.00;153808.94;5008907;28;20475;-75
2024/03/14 01:58:39;;;;;;;15.17;12.97;;;;;;;9.54;100.00;153810.25;5026419;28;20442;-76
2024/03/14 02:01:06;;;;;;;15.93;13.20;;;;;;;9.52;100.00;153805.06;5008493;28;20519;-75
2024/03/14 02:03:36;;;;;;;15.20;13.60;;;;;;;9.52;100.00;153805.06;5025830;28;20464;-75
2024/03/14 02:06:04;;;;;;;14.53;12.93;;;;;;;9.50;100.00;153799.91;4992126;28;20494;-75
2024/03/14 02:08:30;;;;;;;12.77;11.43;;;;;;;9.46;100.00;153788.22;5017675;28;20479;-75
2024/03/14 02:10:57;;;;;;;12.90;11.17;;;;;;;9.47;100.00;153792.13;4973390;28;20978;-75
2024/03/14 02:13:24;;;;;;;14.00;11.67;;;;;;;9.44;100.00;153784.38;4981292;28;20574;-75
2024/03/14 02:15:50;;;;;;;13.17;11.87;;;;;;;9.42;100.00;153779.22;5007439;28;20444;-75
2024/03/14 02:18:18;;;;;;;13.27;11.87;;;;;;;9.38;100.00;153768.84;4985218;28;20477;-75
2024/03/14 02:20:44;;;;;;;14.67;12.70;;;;;;;9.37;100.00;153766.22;4989591;28;20460;-75
2024/03/14 02:23:11;;;;;;;14.17;12.67;;;;;;;9.37;100.00;153764.97;4993451;28;20463;-75
2024/03/14 02:25:38;;;;;;;13.77;12.27;;;;;;;9.37;100.00;153766.22;4965356;28;21050;-75
2024/03/14 02:28:04;;;;;;;13.70;11.80;;;;;;;9.36;100.00;153763.66;4986424;28;20463;-75
2024/03/14 02:30:31;;;;;;;12.20;10.37;;;;;;;9.37;100.00;153764.97;4987600;28;20477;-75
2024/03/14 02:32:58;;;;;;;11.70;10.50;;;;;;;9.34;100.00;153758.50;4971534;28;20456;-75
2024/03/14 02:35:24;;;;;;;12.73;10.63;;;;;;;9.33;100.00;153755.91;4998544;28;20446;-75
2024/03/14 02:37:52;;;;;;;11.17;10.07;;;;;;;9.28;100.00;153741.69;4970243;28;20466;-75
2024/03/14 02:40:19;;;;;;;11.63;10.43;;;;;;;9.28;100.00;153742.97;4983411;28;21059;-75
2024/03/14 02:42:47;;;;;;;15.00;10.63;;;;;;;9.26;100.00;153737.81;5002643;28;20429;-75
2024/03/14 02:45:15;;;;;;;10.83;9.53;;;;;;;9.24;100.00;153732.59;4988116;28;20540;-75
2024/03/14 02:47:43;;;;;;;12.13;9.80;;;;;;;9.24;100.00;153732.59;4973162;28;20456;-75
2024/03/14 02:50:09;;;;;;;12.27;10.43;;;;;;;9.21;100.00;153723.59;4979894;28;20515;-75
2024/03/14 02:52:37;;;;;;;11.03;8.73;;;;;;;9.19;100.00;153719.69;4987844;28;20452;-75
2024/03/14 02:55:07;;;;;;;10.43;8.40;;;;;;;9.18;100.00;153718.41;5008633;28;20779;-75
2024/03/14 02:57:34;;;;;;;11.60;9.27;;;;;;;9.15;100.00;153709.34;4998570;28;20591;-75
2024/03/14 03:00:01;;;;;;;9.00;7.47;;;;;;;9.13;100.00;153704.19;4992994;28;21023;-76
2024/03/14 03:02:27;;;;;;;9.83;8.53;;;;;;;9.07;100.00;153688.66;4990934;28;20452;-75
2024/03/14 03:04:56;;;;;;;9.20;7.53;;;;;;;9.04;100.00;153680.88;4993938;28;20452;-75
2024/03/14 03:07:23;;;;;;;11.00;9.27;;;;;;;9.02;100.00;153675.72;4995673;28;20790;-75
2024/03/14 03:09:49;;;;;;;10.63;8.30;;;;;;;9.00;100.00;153671.81;5018184;28;20487;-75
2024/03/14 03:12:16;;;;;;;8.93;8.03;;;;;;;9.05;100.00;153684.75;5001963;28;21766;-75
2024/03/14 03:14:44;;;;;;;8.67;7.70;;;;;;;9.05;100.00;153684.75;5020658;28;20478;-75
2024/03/14 03:17:12;;;;;;;8.77;7.87;;;;;;;9.01;100.00;153673.13;5025193;28;20463;-75
2024/03/14 03:19:38;;;;;;;9.93;8.60;;;;;;;8.94;100.00;153655.03;5025216;28;20458;-75
2024/03/14 03:22:06;;;;;;;9.37;8.33;;;;;;;8.91;100.00;153647.28;5016983;28;20962;-75
2024/03/14 03:24:32;;;;;;;9.03;8.13;;;;;;;8.89;100.00;153643.41;5029524;28;20589;-75
2024/03/14 03:27:08;;;;;;;10.53;8.50;;;;;;;8.92;100.00;153649.88;5016931;28;20828;-75
2024/03/14 03:29:33;;;;;;;10.63;8.00;;;;;;;8.87;100.00;153638.22;5021621;28;20985;-75
2024/03/14 03:32:00;;;;;;;9.33;8.00;;;;;;;8.84;100.00;153630.44;4995619;28;20451;-75
2024/03/14 03:34:27;;;;;;;9.50;8.10;;;;;;;8.83;100.00;153626.59;4987945;28;20529;-75
2024/03/14 03:36:54;;;;;;;9.27;7.60;;;;;;;8.78;100.00;153613.66;5010865;28;20460;-75
2024/03/14 03:39:19;;;;;;;9.63;8.57;;;;;;;8.78;100.00;153613.66;5020403;28;20535;-75
2024/03/14 03:41:46;;;;;;;8.47;7.67;;;;;;;8.77;100.00;153611.06;5009342;28;20447;-75
2024/03/14 03:44:13;;;;;;;9.23;8.20;;;;;;;8.73;100.00;153602.03;5015077;28;20233;-75
2024/03/14 03:46:44;;;;;;;10.23;8.23;;;;;;;8.71;100.00;153595.56;5018454;28;20445;-75
2024/03/14 03:49:09;;;;;;;10.03;9.00;;;;;;;8.72;100.00;153599.44;5017474;28;20795;-75
2024/03/14 03:51:36;;;;;;;10.37;9.17;;;;;;;8.71;100.00;153596.81;5001117;28;20925;-75
2024/03/14 03:54:03;;;;;;;10.87;8.83;;;;;;;8.68;100.00;153589.13;5000315;28;20215;-75
2024/03/14 03:56:30;;;;;;;10.20;9.20;;;;;;;8.62;100.00;153573.59;5009988;28;20893;-75
2024/03/14 03:58:56;;;;;;;12.03;9.07;;;;;;;8.61;100.00;153570.97;5028251;28;20459;-75
2024/03/14 04:01:23;;;;;;;10.13;8.60;;;;;;;8.57;100.00;153561.97;4991829;28;20808;-75
2024/03/14 04:03:51;;;;;;;10.30;8.90;;;;;;;8.57;100.00;153560.66;5010019;28;20445;-75
2024/03/14 04:06:17;;;;;;;10.80;8.83;;;;;;;8.59;100.00;153565.81;5024405;28;20666;-75
2024/03/14 04:08:45;;;;;;;12.23;9.33;;;;;;;8.56;100.00;153558.06;5026774;28;20471;-75
2024/03/14 04:11:12;;;;;;;10.77;9.43;;;;;;;8.51;100.00;153545.13;5022062;28;20469;-75
2024/03/14 04:13:38;;;;;;;10.80;9.40;;;;;;;8.51;100.00;153546.44;5009501;28;20869;-75
2024/03/14 04:16:05;;;;;;;11.23;9.27;;;;;;;8.45;100.00;153530.91;5011091;28;20439;-75
2024/03/14 04:18:32;;;;;;;12.20;8.90;;;;;;;8.44;100.00;153528.34;5011789;28;20237;-75
2024/03/14 04:20:58;;;;;;;12.70;10.37;;;;;;;8.41;100.00;153520.59;5012312;28;20820;-75
2024/03/14 04:23:25;;;;;;;10.77;8.93;;;;;;;8.40;100.00;153516.69;5021198;28;20514;-75
2024/03/14 04:25:54;;;;;;;11.97;9.13;;;;;;;8.43;100.00;153524.47;4986214;28;20551;-75
2024/03/14 04:28:23;;;;;;;9.80;8.80;;;;;;;8.46;100.00;153532.22;4989177;28;20444;-75
2024/03/14 04:30:50;;;;;;;11.50;9.50;;;;;;;8.38;100.00;153512.84;5004974;28;20464;-75
2024/03/14 04:33:18;;;;;;;10.20;8.90;;;;;;;8.41;100.00;153520.59;5007565;28;20457;-75
2024/03/14 04:35:45;;;;;;;12.70;9.93;;;;;;;8.41;100.00;153519.28;5025256;28;20439;-75
2024/03/14 04:38:12;;;;;;;10.83;9.27;;;;;;;8.39;100.00;153515.38;5018482;28;20499;-75
2024/03/14 04:40:39;;;;;;;10.93;8.50;;;;;;;8.37;100.00;153510.22;5015706;28;20524;-75
2024/03/14 04:43:07;;;;;;;9.90;8.50;;;;;;;8.38;100.00;153511.53;5028160;28;20441;-75
2024/03/14 04:45:33;;;;;;;12.00;8.97;;;;;;;8.39;100.00;153515.38;5018676;28;20954;-75
2024/03/14 04:48:04;;;;;;;11.20;9.00;;;;;;;8.38;100.00;153512.84;4998984;28;20448;-75
2024/03/14 04:50:31;;;;;;;9.93;8.10;;;;;;;8.30;100.00;153490.84;5021340;28;20456;-75
2024/03/14 04:52:57;;;;;;;10.50;8.83;;;;;;;8.28;100.00;153487.00;5007124;28;20459;-75
2024/03/14 04:55:24;;;;;;;10.90;8.70;;;;;;;8.22;100.00;153471.44;5007529;28;20464;-75
2024/03/14 04:57:51;;;;;;;10.00;7.87;;;;;;;8.20;100.00;153464.97;5025610;28;21006;-75
2024/03/14 05:00:21;;;;;;;9.93;7.90;;;;;;;8.19;100.00;153463.66;5004888;28;20835;-75
2024/03/14 05:02:48;;;;;;;9.53;8.60;;;;;;;8.17;100.00;153458.50;5004812;28;20808;-75
2024/03/14 05:05:15;;;;;;;9.00;7.30;;;;;;;8.17;100.00;153458.50;4989099;28;20462;-75
2024/03/14 05:07:42;;;;;;;9.30;7.23;;;;;;;8.14;100.00;153449.44;5043740;28;20471;-75
2024/03/14 05:10:09;;;;;;;8.57;7.40;;;;;;;8.10;100.00;153440.38;4973859;28;20484;-75
2024/03/14 05:12:36;;;;;;;8.17;6.70;;;;;;;8.08;100.00;153435.22;4991990;28;20460;-75
2024/03/14 05:15:04;;;;;;;11.40;8.30;;;;;;;8.05;100.00;153427.47;5006870;28;20463;-75
2024/03/14 05:17:32;;;;;;;10.43;8.13;;;;;;;8.01;100.00;153417.16;4956085;28;20468;-75
2024/03/14 05:19:59;;;;;;;9.30;6.93;;;;;;;8.00;100.00;153414.53;4986440;28;21041;-75
2024/03/14 05:22:26;;;;;;;9.77;7.50;;;;;;;7.96;100.00;153405.53;4977182;28;20492;-75
2024/03/14 05:24:52;;;;;;;12.90;9.43;;;;;;;7.95;100.00;153402.94;4982133;28;21049;-75
2024/03/14 05:27:19;;;;;;;10.60;7.97;;;;;;;7.93;100.00;153396.47;4988577;28;20450;-75
2024/03/14 05:29:47;;;;;;;11.67;7.87;;;;;;;7.91;100.00;153391.31;5004767;28;20481;-75
2024/03/14 05:32:36;;;;;;;11.23;7.60;;;;;;;7.89;100.00;153387.41;5005002;28;21021;-75
2024/03/14 05:35:03;;;;;;;10.50;6.87;;;;;;;7.87;100.00;153380.97;4989338;28;20460;-74
2024/03/14 05:37:30;;;;;;;10.90;8.00;;;;;;;7.85;100.00;153375.81;4992395;28;20659;-74
2024/03/14 05:39:57;;;;;;;12.13;8.33;;;;;;;7.86;100.00;153378.41;4991506;28;20464;-75
2024/03/14 05:42:24;;;;;;;15.07;8.97;;;;;;;7.86;100.00;153379.66;4986657;28;20512;-75
2024/03/14 05:44:55;;;;;;;11.07;7.80;;;;;;;7.86;100.00;153378.41;4988525;28;20518;-75
2024/03/14 05:47:21;;;;;;;11.63;8.37;;;;;;;7.89;100.00;153386.13;4990611;28;20875;-75
2024/03/14 05:49:48;;;;;;;11.60;8.70;;;;;;;7.84;100.00;153373.19;4989856;28;20461;-75
2024/03/14 05:52:15;;;;;;;13.20;8.93;;;;;;;7.84;100.00;153373.19;5001777;28;20452;-75
2024/03/14 05:54:41;;;;;;;11.60;8.47;;;;;;;7.85;100.00;153375.81;4974428;28;20467;-75
2024/03/14 05:57:08;;;;;;;13.97;9.00;;;;;;;7.89;100.00;153386.13;4988173;28;21088;-75
2024/03/14 05:59:36;;;;;;;12.00;8.53;;;;;;;7.92;100.00;153393.88;5001928;28;20473;-74
2024/03/14 06:02:03;;;;;;;13.07;9.80;;;;;;;7.92;100.00;153393.88;4986489;28;21120;-75
2024/03/14 06:04:30;;;;;;;14.83;10.80;;;;;;;7.93;100.00;153396.47;4987688;28;20453;-75
2024/03/14 06:06:57;;;;;;;14.47;9.30;;;;;;;7.93;100.00;153396.47;4990807;28;20568;-75
2024/03/14 06:09:32;;;;;;;13.57;8.77;;;;;;;7.95;100.00;153401.63;4996416;28;20492;-75
2024/03/14 06:11:59;;;;;;;17.57;10.67;;;;;;;7.97;100.00;153406.78;4980219;28;20526;-75
2024/03/14 06:14:26;;;;;;;15.17;10.40;;;;;;;7.99;100.00;153412.00;4995716;28;20456;-75
2024/03/14 06:16:52;;;;;;;16.07;9.90;;;;;;;7.99;100.00;153413.25;4979421;28;20469;-75
2024/03/14 06:19:21;;;;;;;16.83;11.03;;;;;;;8.01;100.00;153415.84;4977976;28;20480;-75
2024/03/14 06:21:49;;;;;;;19.40;12.33;;;;;;;8.03;100.00;153421.00;4994001;28;20488;-75
2024/03/14 06:24:16;;;;;;;18.87;11.30;;;;;;;8.04;100.00;153424.91;4979547;28;20449;-75
2024/03/14 06:26:43;;;;;;;13.97;10.13;;;;;;;8.04;100.00;153424.91;4995378;28;20468;-75
2024/03/14 06:29:10;;;;;;;16.63;9.73;;;;;;;8.07;100.00;153432.66;4977457;28;20468;-75
2024/03/14 06:31:38;;;;;;;14.73;8.93;;;;;;;8.09;100.00;153437.81;4980366;28;20471;-75
2024/03/14 06:34:05;;;;;;;17.23;10.30;;;;;;;8.10;100.00;153440.38;4979068;28;20452;-75
2024/03/14 06:36:32;;;;;;;16.60;10.60;;;;;;;8.14;100.00;153450.75;4977684;28;20565;-75
2024/03/14 06:38:58;;;;;;;14.43;10.37;;;;;;;8.16;100.00;153455.91;4979249;28;20483;-75
2024/03/14 06:41:25;;;;;;;14.40;9.30;;;;;;;8.18;100.00;153461.06;4980673;28;20456;-75
2024/03/14 06:43:52;;;;;;;14.60;10.80;;;;;;;8.19;100.00;153463.66;4978359;28;20773;-75
2024/03/14 06:46:21;;;;;;;13.53;8.97;;;;;;;8.20;100.00;153464.97;4965513;28;20526;-75
2024/03/14 06:48:47;;;;;;;15.70;10.33;;;;;;;8.25;100.00;153479.19;4978428;28;20511;-75
2024/03/14 06:51:14;;;;;;;20.03;11.37;;;;;;;8.28;100.00;153487.00;4995530;28;20467;-75
2024/03/14 06:53:41;;;;;;;17.20;10.53;;;;;;;8.28;100.00;153487.00;4999210;28;21042;-75
2024/03/14 06:56:08;;;;;;;15.47;10.20;;;;;;;8.32;100.00;153497.31;5001681;28;20798;-75
2024/03/14 06:58:35;;;;;;;16.47;10.10;;;;;;;8.34;100.00;153502.47;4984512;28;20480;-75
2024/03/14 07:01:02;;;;;;;13.67;9.20;;;;;;;8.38;100.00;153511.53;5017866;28;20450;-75
2024/03/14 07:03:28;;;;;;;17.10;11.23;;;;;;;8.40;100.00;153516.69;5016665;28;20583;-75
2024/03/14 07:05:57;;;;;;;15.80;10.93;;;;;;;8.43;100.00;153525.75;4984783;28;20889;-75
2024/03/14 07:08:26;;;;;;;13.40;10.13;;;;;;;8.47;100.00;153536.06;5008327;28;20906;-75
2024/03/14 07:10:53;;;;;;;19.30;12.60;;;;;;;8.48;100.00;153538.69;5022289;28;20587;-75
2024/03/14 07:13:20;;;;;;;15.40;10.60;;;;;;;8.53;100.00;153550.28;5010953;28;20454;-75
2024/03/14 07:15:47;;;;;;;17.83;11.00;;;;;;;8.56;100.00;153558.06;5014806;28;20530;-75
2024/03/14 07:18:16;;;;;;;15.17;10.60;;;;;;;8.60;100.00;153567.13;5041665;28;20471;-75
2024/03/14 07:20:44;;;;;;;13.53;9.53;;;;;;;8.62;100.00;153572.28;5010561;28;20438;-75
2024/03/14 07:23:11;;;;;;;14.87;10.00;;;;;;;8.64;100.00;153577.44;5014331;28;20585;-75
2024/03/14 07:25:38;;;;;;;13.80;9.33;;;;;;;8.67;100.00;153585.22;5006732;28;20455;-75
2024/03/14 07:28:07;;;;;;;18.30;9.40;;;;;;;8.73;100.00;153602.03;4989790;28;20989;-75
2024/03/14 07:30:34;;;;;;;16.57;9.87;;;;;;;8.75;100.00;153605.91;5039368;28;20490;-75
2024/03/14 07:33:01;;;;;;;16.33;9.20;;;;;;;8.80;100.00;153618.81;5005717;28;20984;-75
2024/03/14 07:35:28;;;;;;;15.43;9.50;;;;;;;8.85;100.00;153631.75;5010057;28;21071;-75
2024/03/14 07:37:55;;;;;;;13.53;9.97;;;;;;;8.92;100.00;153651.13;5004322;28;20479;-75
2024/03/14 07:40:32;;;;;;;12.30;8.97;;;;;;;8.99;100.00;153669.25;5006298;28;20461;-75
2024/03/14 07:42:59;;;;;;;13.53;9.07;;;;;;;9.07;100.00;153688.66;5009535;28;20533;-75
2024/03/14 07:45:26;;;;;;;11.33;8.07;;;;;;;9.15;100.00;153710.66;5007607;28;20989;-75
2024/03/14 07:47:53;;;;;;;14.23;8.87;;;;;;;9.19;100.00;153720.97;5006500;28;20513;-75
2024/03/14 07:50:20;;;;;;;12.50;8.00;;;;;;;9.25;100.00;153735.22;5006374;28;20950;-75
2024/03/14 07:52:48;;;;;;;11.93;8.33;;;;;;;9.31;100.00;153750.75;4989955;28;20872;-75
2024/03/14 07:55:16;;;;;;;13.07;9.23;;;;;;;9.36;100.00;153763.66;5036607;28;21461;-75
2024/03/14 07:57:43;;;;;;;9.57;7.30;;;;;;;9.43;100.00;153781.75;5022108;28;20533;-75
2024/03/14 08:00:15;;;;;;;10.47;7.33;;;;;;;9.51;100.00;153802.47;5007880;28;20447;-75
2024/03/14 08:02:42;;;;;;;10.07;6.90;;;;;;;9.57;100.00;153816.69;5010609;28;21369;-75
2024/03/14 08:05:08;;;;;;;9.20;7.00;;;;;;;9.60;100.00;153825.78;5017914;28;20895;-75
2024/03/14 08:07:37;;;;;;;12.03;7.93;;;;;;;9.68;100.00;153845.16;5018908;28;20444;-75
2024/03/14 08:10:05;;;;;;;10.00;7.60;;;;;;;9.76;100.00;153867.19;5022896;28;20483;-75
2024/03/14 08:12:33;;;;;;;10.70;7.90;;;;;;;9.91;100.00;153904.69;5018535;28;20508;-75
2024/03/14 08:15:11;;;;;;;10.13;8.07;;;;;;;10.04;100.00;153937.03;5003760;28;20512;-75
2024/03/14 08:17:39;;;;;;;10.67;7.90;;;;;;;10.17;100.00;153970.72;4992279;28;20447;-75
2024/03/14 08:20:09;;;;;;;11.00;7.37;;;;;;;10.29;100.00;154003.13;5005042;28;20464;-75
2024/03/14 08:22:36;;;;;;;9.20;6.33;;;;;;;10.39;100.00;154027.69;5022482;28;20818;-75
2024/03/14 08:25:03;;;;;;;9.23;7.27;;;;;;;10.45;100.00;154043.25;5027316;28;20443;-75
2024/03/14 08:27:33;;;;;;;9.97;6.90;;;;;;;10.53;100.00;154062.66;5002932;28;20549;-75
2024/03/14 08:30:05;;;;;;;9.40;6.87;;;;;;;10.56;100.00;154071.75;5022386;28;20474;-74
2024/03/14 08:32:33;;;;;;;8.37;5.83;;;;;;;10.59;100.00;154079.47;5004346;28;20957;-74
2024/03/14 08:34:59;;;;;;;11.13;6.97;;;;;;;10.60;100.00;154082.06;5020607;28;20462;-74
2024/03/14 08:37:26;;;;;;;8.00;6.47;;;;;;;10.64;100.00;154092.47;5021990;28;20448;-74
2024/03/14 08:39:53;;;;;;;8.67;6.20;;;;;;;10.71;100.00;154110.56;4993032;28;20982;-74
2024/03/14 08:42:27;;;;;;;8.57;6.07;;;;;;;10.73;100.00;154115.75;5019258;28;20455;-74
2024/03/14 08:44:54;;;;;;;7.87;5.40;;;;;;;10.77;100.00;154126.13;4987945;28;21171;-74
2024/03/14 08:47:21;;;;;;;9.10;5.80;;;;;;;10.78;100.00;154128.69;5004229;28;20822;-74
2024/03/14 08:49:48;;;;;;;9.63;6.13;;;;;;;10.78;100.00;154128.69;5019767;28;20538;-74
2024/03/14 08:52:15;;;;;;;7.43;6.00;;;;;;;10.83;100.00;154140.31;5021333;28;20469;-74
2024/03/14 08:54:45;;;;;;;7.33;5.80;;;;;;;10.87;100.00;154152.03;4987890;28;20450;-74
2024/03/14 08:57:12;;;;;;;7.63;5.83;;;;;;;10.92;100.00;154164.97;5002409;28;21032;-74
2024/03/14 08:59:39;;;;;;;7.20;5.87;;;;;;;11.01;100.00;154188.25;5003935;28;20817;-74
2024/03/14 09:02:07;;;;;;;6.50;4.97;;;;;;;11.13;100.00;154216.75;5004023;28;20456;-74
2024/03/14 09:04:35;;;;;;;9.60;6.13;;;;;;;11.22;100.00;154240.09;5036622;28;20461;-74
2024/03/14 09:07:02;;;;;;;7.63;5.50;;;;;;;11.28;100.00;154256.91;5001632;28;20458;-74
2024/03/14 09:09:34;;;;;;;6.43;5.13;;;;;;;11.39;100.00;154284.13;4989246;28;20846;-74
2024/03/14 09:12:09;;;;;;;6.80;5.50;;;;;;;11.44;100.00;154298.38;4980429;28;20460;-74
2024/03/14 09:14:37;;;;;;;7.20;5.10;;;;;;;11.50;100.00;154312.63;4997089;28;20460;-74
2024/03/14 09:17:05;;;;;;;7.07;5.73;;;;;;;11.52;100.00;154317.81;4997978;28;20496;-75
2024/03/14 09:19:33;;;;;;;6.30;4.70;;;;;;;11.59;100.00;154337.28;4967859;28;20472;-75
2024/03/14 09:21:59;;;;;;;5.07;4.17;;;;;;;11.62;100.00;154343.75;4979890;28;20453;-75
2024/03/14 09:24:26;;;;;;;6.07;4.50;;;;;;;11.69;100.00;154361.94;4984676;28;20441;-75
2024/03/14 09:26:54;;;;;;;5.70;4.83;;;;;;;11.74;100.00;154373.59;4999841;28;20471;-75
2024/03/14 09:29:22;;;;;;;6.63;4.53;;;;;;;11.86;100.00;154405.97;4991911;28;20453;-76
2024/03/14 09:31:49;;;;;;;6.33;4.77;;;;;;;11.93;100.00;154424.16;4982767;28;20480;-74
2024/03/14 09:34:17;;;;;;;5.13;3.90;;;;;;;11.97;100.00;154434.50;4980705;28;20784;-74
2024/03/14 09:36:50;;;;;;;6.13;4.37;;;;;;;12.04;100.00;154451.38;4965756;28;20479;-74
2024/03/14 09:39:19;;;;;;;6.10;4.90;;;;;;;12.10;100.00;154468.19;4980758;28;20564;-75
2024/03/14 09:41:47;;;;;;;5.47;4.00;;;;;;;12.14;100.00;154478.59;4982004;28;20461;-74
2024/03/14 09:44:14;;;;;;;4.03;3.43;;;;;;;12.19;100.00;154490.25;4999110;28;20511;-74
2024/03/14 09:46:43;;;;;;;4.47;3.30;;;;;;;12.23;100.00;154501.91;4982916;28;20821;-74
2024/03/14 09:49:11;;;;;;;4.10;3.33;;;;;;;12.21;100.00;154496.72;4982560;28;20457;-74
2024/03/14 09:51:38;;;;;;;4.27;3.17;;;;;;;12.18;99.71;154488.94;4981107;28;20909;-74
2024/03/14 09:54:05;;;;;;;3.73;3.17;;;;;;;12.23;100.00;154499.34;4981624;28;20453;-74
2024/03/14 09:56:32;;;;;;;7.00;3.13;;;;;;;12.21;100.00;154496.72;4981749;28;20948;-75
2024/03/14 09:58:59;;;;;;;4.70;3.77;;;;;;;12.21;100.00;154496.72;4948497;28;20797;-74
2024/03/14 10:01:26;;;;;;;4.40;3.40;;;;;;;12.19;100.00;154491.56;4982728;28;20480;-76
2024/03/14 10:03:53;;;;;;;3.67;2.90;;;;;;;12.20;100.00;154494.13;4982946;28;20460;-76
2024/03/14 10:06:20;;;;;;;4.50;2.90;;;;;;;12.19;99.94;154491.56;4978484;28;20501;-76
2024/03/14 10:08:47;;;;;;;6.37;3.93;;;;;;;12.20;99.04;154494.13;4981116;28;20473;-76
2024/03/14 10:11:14;;;;;;;5.40;3.80;;;;;;;12.30;99.66;154517.47;4994473;28;20452;-76
2024/03/14 10:13:41;;;;;;;4.30;3.60;;;;;;;12.36;100.00;154533.03;4981809;28;20460;-76
2024/03/14 10:16:08;;;;;;;5.63;3.93;;;;;;;12.36;100.00;154533.03;4980026;28;20959;-76
2024/03/14 10:18:35;;;;;;;5.47;4.00;;;;;;;12.43;99.43;154552.50;4995769;28;20519;-75
2024/03/14 10:21:05;;;;;;;4.87;4.37;;;;;;;12.48;99.26;154565.44;4968250;28;20465;-77
2024/03/14 10:23:32;;;;;;;5.53;3.60;;;;;;;12.61;100.00;154597.84;4979430;28;20478;-74
2024/03/14 10:25:58;;;;;;;5.20;4.00;;;;;;;12.62;98.88;154600.47;4979035;28;20467;-75
2024/03/14 10:28:31;;;;;;;4.50;3.73;;;;;;;12.62;95.99;154600.47;4963197;28;20444;-75
2024/03/14 10:31:02;;;;;;;4.60;4.00;;;;;;;12.73;97.82;154629.00;4963876;28;20461;-75
2024/03/14 10:33:29;;;;;;;4.40;4.00;;;;;;;12.76;98.07;154636.81;4965032;28;20920;-75
2024/03/14 10:35:57;;;;;;;4.40;3.90;;;;;;;12.79;97.86;154644.53;4946540;28;20449;-75
2024/03/14 10:38:25;;;;;;;6.83;4.40;;;;;;;12.82;96.51;154652.31;4993074;28;20450;-75
2024/03/14 10:40:54;;;;;;;4.40;3.10;;;;;;;12.87;97.16;154665.28;4978956;28;20493;-75
2024/03/14 10:43:21;;;;;;;2.77;2.50;;;;;;;12.92;98.06;154677.00;4994245;28;20456;-75
2024/03/14 10:45:52;;;;;;;5.03;2.87;;;;;;;12.98;98.01;154693.84;4978467;28;20453;-75
2024/03/14 10:48:22;;;;;;;5.27;3.67;;;;;;;13.03;95.85;154706.81;4993593;28;20971;-74
2024/03/14 10:50:51;;;;;;;4.43;3.20;;;;;;;13.10;95.55;154723.75;4962759;28;20445;-75
2024/03/14 10:53:19;;;;;;;4.17;3.77;;;;;;;13.04;93.85;154709.44;4994900;28;20466;-75
2024/03/14 10:55:46;;;;;;;3.93;3.00;;;;;;;13.10;95.36;154725.06;4963929;28;20494;-75
2024/03/14 10:58:13;;;;;;;4.37;2.70;;;;;;;13.16;95.45;154740.59;4993812;28;20473;-75
2024/03/14 11:00:40;;;;;;;3.50;2.43;;;;;;;13.19;91.57;154748.38;4947228;28;20472;-75
2024/03/14 11:03:11;;;;;;;3.37;2.50;;;;;;;13.24;90.53;154760.03;4979131;28;20504;-75
2024/03/14 11:05:39;;;;;;;2.90;2.23;;;;;;;13.32;90.29;154780.81;4977880;28;20537;-75
2024/03/14 11:08:06;;;;;;;2.77;2.10;;;;;;;13.41;88.79;154805.50;4967242;28;21501;-75
2024/03/14 11:10:33;;;;;;;4.70;1.90;;;;;;;13.45;88.53;154813.28;5035513;28;20462;-75
2024/03/14 11:13:01;;;;;;;1.80;1.60;;;;;;;13.49;85.57;154824.94;5002145;28;20868;-76
2024/03/14 11:15:28;;;;;;;2.30;2.00;;;;;;;13.55;87.38;154840.53;5002993;28;20473;-75
2024/03/14 11:17:56;;;;;;;2.57;2.00;;;;;;;13.61;88.17;154856.06;5006140;28;20474;-74